Main page
METAR-TAF:

METAR-TAF

Airports :

Bella Coola Airport

Bella Coola, British Columbia, Canada

latitude: 52-23N, longitude: 126-35W, elevation: 35 m

Current weather observation

The report was made 45 minutes ago, at 13:00 UTC
Calm wind
Temperature -2°C
Humidity 100%
Pressure 1012 hPa
Visibility: 12.9 km
Few clouds at a height of 2800 ft

METAR: CYBD 221300Z 00000KT 8SM FEW028 M02/M02 A2988 RMK SC2 FROIN SLP120

Time: 06:45 (13:45 UTC)


TAF: missing

Weather observations and forecasts of more than 4000 airports (METAR and TAF reports).

The available stations are represented by yellow and red dots on the map.

Hover mouse over dot to see the name of the station.

Then click to see weather observations and forecasts.

To change the map : click on the green buttons with a black cross to zoom in, on the green button with a dash to zoom out, or on the green arrows for adjacent maps.


METAR-TAF: